sensor_id;sensor_type;location;lat;lon;timestamp;temperature;humidity
45685;DHT22;46836;48.388;16.210;2023-03-09T00:00:35;8.90;99.90
45685;DHT22;46836;48.388;16.210;2023-03-09T00:03:02;9.00;99.90
45685;DHT22;46836;48.388;16.210;2023-03-09T00:05:29;9.10;99.90
45685;DHT22;46836;48.388;16.210;2023-03-09T00:07:57;9.20;99.90
45685;DHT22;46836;48.388;16.210;2023-03-09T00:10:24;9.30;99.90
45685;DHT22;46836;48.388;16.210;2023-03-09T00:12:51;9.30;99.90
45685;DHT22;46836;48.388;16.210;2023-03-09T00:15:18;9.40;99.90
45685;DHT22;46836;48.388;16.210;2023-03-09T00:17:45;9.50;99.90
45685;DHT22;46836;48.388;16.210;2023-03-09T00:20:12;9.50;99.90
45685;DHT22;46836;48.388;16.210;2023-03-09T00:22:48;9.60;99.90
45685;DHT22;46836;48.388;16.210;2023-03-09T00:25:16;9.60;99.90
45685;DHT22;46836;48.388;16.210;2023-03-09T00:27:47;9.60;99.90
45685;DHT22;46836;48.388;16.210;2023-03-09T00:30:16;9.70;99.90
45685;DHT22;46836;48.388;16.210;2023-03-09T00:32:43;9.70;99.90
45685;DHT22;46836;48.388;16.210;2023-03-09T00:35:11;9.60;99.90
45685;DHT22;46836;48.388;16.210;2023-03-09T00:37:38;9.70;99.90
45685;DHT22;46836;48.388;16.210;2023-03-09T00:40:07;9.70;99.90
45685;DHT22;46836;48.388;16.210;2023-03-09T00:42:38;9.70;99.90
45685;DHT22;46836;48.388;16.210;2023-03-09T00:45:05;9.80;99.90
45685;DHT22;46836;48.388;16.210;2023-03-09T00:47:33;9.80;99.90
45685;DHT22;46836;48.388;16.210;2023-03-09T00:50:00;9.90;99.90
45685;DHT22;46836;48.388;16.210;2023-03-09T00:52:27;9.80;99.90
45685;DHT22;46836;48.388;16.210;2023-03-09T00:54:55;9.80;99.90
45685;DHT22;46836;48.388;16.210;2023-03-09T00:57:25;9.80;99.90
45685;DHT22;46836;48.388;16.210;2023-03-09T00:59:52;9.80;99.90
45685;DHT22;46836;48.388;16.210;2023-03-09T01:02:20;9.80;99.90
45685;DHT22;46836;48.388;16.210;2023-03-09T01:04:48;9.70;99.90
45685;DHT22;46836;48.388;16.210;2023-03-09T01:07:15;9.70;99.90
45685;DHT22;46836;48.388;16.210;2023-03-09T01:09:42;9.70;99.90
45685;DHT22;46836;48.388;16.210;2023-03-09T01:12:10;9.60;99.90
45685;DHT22;46836;48.388;16.210;2023-03-09T01:14:37;9.60;99.90
45685;DHT22;46836;48.388;16.210;2023-03-09T01:17:04;9.50;99.90
45685;DHT22;46836;48.388;16.210;2023-03-09T01:19:31;9.40;99.90
45685;DHT22;46836;48.388;16.210;2023-03-09T01:22:00;9.40;99.90
45685;DHT22;46836;48.388;16.210;2023-03-09T01:24:27;9.30;99.90
45685;DHT22;46836;48.388;16.210;2023-03-09T01:26:54;9.30;99.90
45685;DHT22;46836;48.388;16.210;2023-03-09T01:29:21;9.20;99.90
45685;DHT22;46836;48.388;16.210;2023-03-09T01:31:48;9.20;99.90
45685;DHT22;46836;48.388;16.210;2023-03-09T01:34:16;9.10;99.90
45685;DHT22;46836;48.388;16.210;2023-03-09T01:36:43;9.00;99.90
45685;DHT22;46836;48.388;16.210;2023-03-09T01:39:10;9.00;99.90
45685;DHT22;46836;48.388;16.210;2023-03-09T01:41:38;8.90;99.90
45685;DHT22;46836;48.388;16.210;2023-03-09T01:44:05;8.90;99.90
45685;DHT22;46836;48.388;16.210;2023-03-09T01:49:13;8.80;99.90
45685;DHT22;46836;48.388;16.210;2023-03-09T01:51:43;8.70;99.90
45685;DHT22;46836;48.388;16.210;2023-03-09T01:57:09;8.70;99.90
45685;DHT22;46836;48.388;16.210;2023-03-09T01:59:37;8.60;99.90
45685;DHT22;46836;48.388;16.210;2023-03-09T02:02:06;8.60;99.90
45685;DHT22;46836;48.388;16.210;2023-03-09T02:04:39;8.60;99.90
45685;DHT22;46836;48.388;16.210;2023-03-09T02:07:10;8.60;99.90
45685;DHT22;46836;48.388;16.210;2023-03-09T02:09:46;8.50;99.90
45685;DHT22;46836;48.388;16.210;2023-03-09T02:12:18;8.50;99.90
45685;DHT22;46836;48.388;16.210;2023-03-09T02:14:49;8.50;99.90
45685;DHT22;46836;48.388;16.210;2023-03-09T02:17:17;8.50;99.90
45685;DHT22;46836;48.388;16.210;2023-03-09T02:22:35;8.50;99.90
45685;DHT22;46836;48.388;16.210;2023-03-09T02:27:33;8.60;99.90
45685;DHT22;46836;48.388;16.210;2023-03-09T02:30:00;8.70;99.90
45685;DHT22;46836;48.388;16.210;2023-03-09T02:32:31;8.70;99.90
45685;DHT22;46836;48.388;16.210;2023-03-09T02:34:59;8.70;99.90
45685;DHT22;46836;48.388;16.210;2023-03-09T02:37:34;8.80;99.90
45685;DHT22;46836;48.388;16.210;2023-03-09T02:42:40;8.80;99.90
45685;DHT22;46836;48.388;16.210;2023-03-09T02:45:11;8.80;99.90
45685;DHT22;46836;48.388;16.210;2023-03-09T02:47:39;8.90;99.90
45685;DHT22;46836;48.388;16.210;2023-03-09T02:50:07;8.90;99.90
45685;DHT22;46836;48.388;16.210;2023-03-09T02:52:36;8.90;99.90
45685;DHT22;46836;48.388;16.210;2023-03-09T02:55:04;8.90;99.90
45685;DHT22;46836;48.388;16.210;2023-03-09T02:57:31;8.90;99.90
45685;DHT22;46836;48.388;16.210;2023-03-09T02:59:58;8.90;99.90
45685;DHT22;46836;48.388;16.210;2023-03-09T03:02:26;8.90;99.90
45685;DHT22;46836;48.388;16.210;2023-03-09T03:04:53;8.90;99.90
45685;DHT22;46836;48.388;16.210;2023-03-09T03:07:20;8.80;99.90
45685;DHT22;46836;48.388;16.210;2023-03-09T03:09:47;8.80;99.90
45685;DHT22;46836;48.388;16.210;2023-03-09T03:12:14;8.80;99.90
45685;DHT22;46836;48.388;16.210;2023-03-09T03:14:41;8.70;99.90
45685;DHT22;46836;48.388;16.210;2023-03-09T03:17:08;8.70;99.90
45685;DHT22;46836;48.388;16.210;2023-03-09T03:19:35;8.60;99.90
45685;DHT22;46836;48.388;16.210;2023-03-09T03:22:04;8.60;99.90
45685;DHT22;46836;48.388;16.210;2023-03-09T03:24:38;8.60;99.90
45685;DHT22;46836;48.388;16.210;2023-03-09T03:27:06;8.60;99.90
45685;DHT22;46836;48.388;16.210;2023-03-09T03:29:33;8.60;99.90
45685;DHT22;46836;48.388;16.210;2023-03-09T03:32:00;8.60;99.90
45685;DHT22;46836;48.388;16.210;2023-03-09T03:34:27;8.60;99.90
45685;DHT22;46836;48.388;16.210;2023-03-09T03:36:54;8.60;99.90
45685;DHT22;46836;48.388;16.210;2023-03-09T03:39:21;8.60;99.90
45685;DHT22;46836;48.388;16.210;2023-03-09T03:41:48;8.70;99.90
45685;DHT22;46836;48.388;16.210;2023-03-09T03:44:16;8.70;99.90
45685;DHT22;46836;48.388;16.210;2023-03-09T03:46:43;8.70;99.90
45685;DHT22;46836;48.388;16.210;2023-03-09T03:49:11;8.70;99.90
45685;DHT22;46836;48.388;16.210;2023-03-09T03:51:38;8.70;99.90
45685;DHT22;46836;48.388;16.210;2023-03-09T03:54:05;8.70;99.90
45685;DHT22;46836;48.388;16.210;2023-03-09T03:56:32;8.80;99.90
45685;DHT22;46836;48.388;16.210;2023-03-09T03:58:59;8.80;99.90
45685;DHT22;46836;48.388;16.210;2023-03-09T04:01:26;8.80;99.90
45685;DHT22;46836;48.388;16.210;2023-03-09T04:03:53;8.80;99.90
45685;DHT22;46836;48.388;16.210;2023-03-09T04:06:20;8.80;99.90
45685;DHT22;46836;48.388;16.210;2023-03-09T04:08:47;8.80;99.90
45685;DHT22;46836;48.388;16.210;2023-03-09T04:11:14;8.70;99.90
45685;DHT22;46836;48.388;16.210;2023-03-09T04:13:41;8.70;99.90
45685;DHT22;46836;48.388;16.210;2023-03-09T04:16:09;8.60;99.90
45685;DHT22;46836;48.388;16.210;2023-03-09T04:18:36;8.60;99.90
45685;DHT22;46836;48.388;16.210;2023-03-09T04:21:03;8.60;99.90
45685;DHT22;46836;48.388;16.210;2023-03-09T04:23:30;8.50;99.90
45685;DHT22;46836;48.388;16.210;2023-03-09T04:25:59;8.50;99.90
45685;DHT22;46836;48.388;16.210;2023-03-09T04:28:27;8.50;99.90
45685;DHT22;46836;48.388;16.210;2023-03-09T04:30:55;8.40;99.90
45685;DHT22;46836;48.388;16.210;2023-03-09T04:33:22;8.40;99.90
45685;DHT22;46836;48.388;16.210;2023-03-09T04:35:49;8.40;99.90
45685;DHT22;46836;48.388;16.210;2023-03-09T04:38:16;8.40;99.90
45685;DHT22;46836;48.388;16.210;2023-03-09T04:40:44;8.40;99.90
45685;DHT22;46836;48.388;16.210;2023-03-09T04:43:11;8.30;99.90
45685;DHT22;46836;48.388;16.210;2023-03-09T04:45:38;8.20;99.90
45685;DHT22;46836;48.388;16.210;2023-03-09T04:48:05;8.20;99.90
45685;DHT22;46836;48.388;16.210;2023-03-09T04:50:32;8.10;99.90
45685;DHT22;46836;48.388;16.210;2023-03-09T04:52:59;8.10;99.90
45685;DHT22;46836;48.388;16.210;2023-03-09T04:55:26;8.10;99.90
45685;DHT22;46836;48.388;16.210;2023-03-09T04:57:53;8.00;99.90
45685;DHT22;46836;48.388;16.210;2023-03-09T05:00:20;7.90;99.90
45685;DHT22;46836;48.388;16.210;2023-03-09T05:02:47;7.80;99.90
45685;DHT22;46836;48.388;16.210;2023-03-09T05:05:14;7.80;99.90
45685;DHT22;46836;48.388;16.210;2023-03-09T05:07:43;7.70;99.90
45685;DHT22;46836;48.388;16.210;2023-03-09T05:10:11;7.70;99.90
45685;DHT22;46836;48.388;16.210;2023-03-09T05:12:38;7.60;99.90
45685;DHT22;46836;48.388;16.210;2023-03-09T05:15:05;7.60;99.90
45685;DHT22;46836;48.388;16.210;2023-03-09T05:17:33;7.60;99.90
45685;DHT22;46836;48.388;16.210;2023-03-09T05:20:01;7.60;99.90
45685;DHT22;46836;48.388;16.210;2023-03-09T05:22:28;7.60;99.90
45685;DHT22;46836;48.388;16.210;2023-03-09T05:24:55;7.60;99.90
45685;DHT22;46836;48.388;16.210;2023-03-09T05:27:23;7.60;99.90
45685;DHT22;46836;48.388;16.210;2023-03-09T05:29:53;7.60;99.90
45685;DHT22;46836;48.388;16.210;2023-03-09T05:32:20;7.60;99.90
45685;DHT22;46836;48.388;16.210;2023-03-09T05:34:47;7.60;99.90
45685;DHT22;46836;48.388;16.210;2023-03-09T05:37:14;7.70;99.90
45685;DHT22;46836;48.388;16.210;2023-03-09T05:39:41;7.70;99.90
45685;DHT22;46836;48.388;16.210;2023-03-09T05:42:09;7.80;99.90
45685;DHT22;46836;48.388;16.210;2023-03-09T05:44:36;7.80;99.90
45685;DHT22;46836;48.388;16.210;2023-03-09T05:47:03;7.80;99.90
45685;DHT22;46836;48.388;16.210;2023-03-09T05:49:30;7.80;99.90
45685;DHT22;46836;48.388;16.210;2023-03-09T05:51:58;7.90;99.90
45685;DHT22;46836;48.388;16.210;2023-03-09T05:54:26;8.10;99.90
45685;DHT22;46836;48.388;16.210;2023-03-09T05:56:54;8.20;99.90
45685;DHT22;46836;48.388;16.210;2023-03-09T05:59:21;8.40;99.90
45685;DHT22;46836;48.388;16.210;2023-03-09T06:01:48;8.60;99.90
45685;DHT22;46836;48.388;16.210;2023-03-09T06:04:15;8.70;99.90
45685;DHT22;46836;48.388;16.210;2023-03-09T06:06:42;8.90;99.90
45685;DHT22;46836;48.388;16.210;2023-03-09T06:09:10;9.10;99.90
45685;DHT22;46836;48.388;16.210;2023-03-09T06:11:37;9.30;99.90
45685;DHT22;46836;48.388;16.210;2023-03-09T06:14:04;9.40;99.90
45685;DHT22;46836;48.388;16.210;2023-03-09T06:16:31;9.60;99.90
45685;DHT22;46836;48.388;16.210;2023-03-09T06:18:58;9.70;99.90
45685;DHT22;46836;48.388;16.210;2023-03-09T06:21:25;9.90;99.90
45685;DHT22;46836;48.388;16.210;2023-03-09T06:23:53;10.00;99.90
45685;DHT22;46836;48.388;16.210;2023-03-09T06:26:21;10.10;99.90
45685;DHT22;46836;48.388;16.210;2023-03-09T06:28:49;10.20;99.90
45685;DHT22;46836;48.388;16.210;2023-03-09T06:31:17;10.30;99.90
45685;DHT22;46836;48.388;16.210;2023-03-09T06:33:46;10.40;99.90
45685;DHT22;46836;48.388;16.210;2023-03-09T06:36:16;10.50;99.90
45685;DHT22;46836;48.388;16.210;2023-03-09T06:38:43;10.60;99.90
45685;DHT22;46836;48.388;16.210;2023-03-09T06:41:10;10.70;99.90
45685;DHT22;46836;48.388;16.210;2023-03-09T06:43:39;10.80;99.90
45685;DHT22;46836;48.388;16.210;2023-03-09T06:46:08;11.00;99.90
45685;DHT22;46836;48.388;16.210;2023-03-09T06:48:35;11.10;99.90
45685;DHT22;46836;48.388;16.210;2023-03-09T06:51:02;11.20;99.90
45685;DHT22;46836;48.388;16.210;2023-03-09T06:53:29;11.30;99.90
45685;DHT22;46836;48.388;16.210;2023-03-09T06:56:00;11.40;99.90
45685;DHT22;46836;48.388;16.210;2023-03-09T06:58:30;11.50;99.90
45685;DHT22;46836;48.388;16.210;2023-03-09T07:01:05;11.60;99.90
45685;DHT22;46836;48.388;16.210;2023-03-09T07:03:33;11.70;99.90
45685;DHT22;46836;48.388;16.210;2023-03-09T07:06:00;11.80;99.90
45685;DHT22;46836;48.388;16.210;2023-03-09T07:08:27;11.90;99.90
45685;DHT22;46836;48.388;16.210;2023-03-09T07:10:55;12.00;99.90
45685;DHT22;46836;48.388;16.210;2023-03-09T07:13:23;12.10;99.90
45685;DHT22;46836;48.388;16.210;2023-03-09T07:15:51;12.30;99.90
45685;DHT22;46836;48.388;16.210;2023-03-09T07:18:18;12.30;99.90
45685;DHT22;46836;48.388;16.210;2023-03-09T07:20:45;12.40;99.90
45685;DHT22;46836;48.388;16.210;2023-03-09T07:23:13;12.50;99.90
45685;DHT22;46836;48.388;16.210;2023-03-09T07:25:40;12.60;99.90
45685;DHT22;46836;48.388;16.210;2023-03-09T07:28:07;12.90;99.90
45685;DHT22;46836;48.388;16.210;2023-03-09T07:30:38;13.20;99.90
45685;DHT22;46836;48.388;16.210;2023-03-09T07:33:05;13.40;99.90
45685;DHT22;46836;48.388;16.210;2023-03-09T07:35:33;13.40;99.90
45685;DHT22;46836;48.388;16.210;2023-03-09T07:38:00;13.40;99.90
45685;DHT22;46836;48.388;16.210;2023-03-09T07:40:27;13.40;99.90
45685;DHT22;46836;48.388;16.210;2023-03-09T07:42:54;13.60;99.90
45685;DHT22;46836;48.388;16.210;2023-03-09T07:45:22;13.90;99.90
45685;DHT22;46836;48.388;16.210;2023-03-09T07:47:49;14.20;99.90
45685;DHT22;46836;48.388;16.210;2023-03-09T07:50:17;14.40;99.90
45685;DHT22;46836;48.388;16.210;2023-03-09T07:52:44;14.60;99.90
45685;DHT22;46836;48.388;16.210;2023-03-09T07:55:13;14.60;99.90
45685;DHT22;46836;48.388;16.210;2023-03-09T07:57:40;14.30;99.90
45685;DHT22;46836;48.388;16.210;2023-03-09T08:00:11;14.10;99.90
45685;DHT22;46836;48.388;16.210;2023-03-09T08:02:40;13.90;99.90
45685;DHT22;46836;48.388;16.210;2023-03-09T08:05:09;13.80;99.90
45685;DHT22;46836;48.388;16.210;2023-03-09T08:07:37;13.80;99.90
45685;DHT22;46836;48.388;16.210;2023-03-09T08:10:04;13.80;99.90
45685;DHT22;46836;48.388;16.210;2023-03-09T08:12:32;13.80;99.90
45685;DHT22;46836;48.388;16.210;2023-03-09T08:14:59;13.90;99.90
45685;DHT22;46836;48.388;16.210;2023-03-09T08:17:26;14.00;99.90
45685;DHT22;46836;48.388;16.210;2023-03-09T08:19:54;14.30;99.90
45685;DHT22;46836;48.388;16.210;2023-03-09T08:22:21;14.50;99.90
45685;DHT22;46836;48.388;16.210;2023-03-09T08:24:49;14.60;99.90
45685;DHT22;46836;48.388;16.210;2023-03-09T08:27:16;14.50;99.90
45685;DHT22;46836;48.388;16.210;2023-03-09T08:29:43;14.40;99.90
45685;DHT22;46836;48.388;16.210;2023-03-09T08:32:10;14.40;99.90
45685;DHT22;46836;48.388;16.210;2023-03-09T08:34:38;14.50;99.90
45685;DHT22;46836;48.388;16.210;2023-03-09T08:37:05;14.50;99.90
45685;DHT22;46836;48.388;16.210;2023-03-09T08:39:32;14.40;99.90
45685;DHT22;46836;48.388;16.210;2023-03-09T08:41:59;14.40;99.90
45685;DHT22;46836;48.388;16.210;2023-03-09T08:44:26;14.40;99.90
45685;DHT22;46836;48.388;16.210;2023-03-09T08:46:53;14.40;99.90
45685;DHT22;46836;48.388;16.210;2023-03-09T08:49:22;14.40;99.90
45685;DHT22;46836;48.388;16.210;2023-03-09T08:51:49;14.60;99.90
45685;DHT22;46836;48.388;16.210;2023-03-09T08:54:17;14.60;99.90
45685;DHT22;46836;48.388;16.210;2023-03-09T08:56:44;14.70;99.90
45685;DHT22;46836;48.388;16.210;2023-03-09T08:59:11;14.70;99.90
45685;DHT22;46836;48.388;16.210;2023-03-09T09:01:38;14.70;99.90
45685;DHT22;46836;48.388;16.210;2023-03-09T09:04:05;14.70;99.90
45685;DHT22;46836;48.388;16.210;2023-03-09T09:06:32;14.80;99.90
45685;DHT22;46836;48.388;16.210;2023-03-09T09:08:59;14.90;99.90
45685;DHT22;46836;48.388;16.210;2023-03-09T09:11:26;14.90;99.90
45685;DHT22;46836;48.388;16.210;2023-03-09T09:13:53;15.20;99.90
45685;DHT22;46836;48.388;16.210;2023-03-09T09:16:21;15.40;99.90
45685;DHT22;46836;48.388;16.210;2023-03-09T09:18:48;15.60;99.90
45685;DHT22;46836;48.388;16.210;2023-03-09T09:21:16;15.60;99.90
45685;DHT22;46836;48.388;16.210;2023-03-09T09:23:46;15.50;99.90
45685;DHT22;46836;48.388;16.210;2023-03-09T09:26:14;15.60;99.90
45685;DHT22;46836;48.388;16.210;2023-03-09T09:28:44;15.60;99.90
45685;DHT22;46836;48.388;16.210;2023-03-09T09:31:14;15.70;99.90
45685;DHT22;46836;48.388;16.210;2023-03-09T09:33:43;15.60;99.90
45685;DHT22;46836;48.388;16.210;2023-03-09T09:36:13;15.60;99.90
45685;DHT22;46836;48.388;16.210;2023-03-09T09:38:41;15.60;99.90
45685;DHT22;46836;48.388;16.210;2023-03-09T09:44:01;15.50;99.90
45685;DHT22;46836;48.388;16.210;2023-03-09T09:46:30;15.60;99.90
45685;DHT22;46836;48.388;16.210;2023-03-09T09:48:59;15.60;99.90
45685;DHT22;46836;48.388;16.210;2023-03-09T09:51:50;15.60;99.90
45685;DHT22;46836;48.388;16.210;2023-03-09T10:00:22;15.90;99.90
45685;DHT22;46836;48.388;16.210;2023-03-09T10:09:00;15.90;99.90
45685;DHT22;46836;48.388;16.210;2023-03-09T10:11:39;15.90;99.90
45685;DHT22;46836;48.388;16.210;2023-03-09T10:16:56;16.00;99.90
45685;DHT22;46836;48.388;16.210;2023-03-09T10:19:37;16.10;99.90
45685;DHT22;46836;48.388;16.210;2023-03-09T10:24:46;16.10;99.90
45685;DHT22;46836;48.388;16.210;2023-03-09T10:27:31;16.00;99.90
45685;DHT22;46836;48.388;16.210;2023-03-09T10:30:10;15.90;99.90
45685;DHT22;46836;48.388;16.210;2023-03-09T10:32:54;15.70;99.90
45685;DHT22;46836;48.388;16.210;2023-03-09T10:38:01;15.30;99.90
45685;DHT22;46836;48.388;16.210;2023-03-09T10:40:32;15.40;99.90
45685;DHT22;46836;48.388;16.210;2023-03-09T10:43:02;15.30;99.90
45685;DHT22;46836;48.388;16.210;2023-03-09T10:45:32;15.30;99.90
45685;DHT22;46836;48.388;16.210;2023-03-09T10:48:04;15.20;99.90
45685;DHT22;46836;48.388;16.210;2023-03-09T10:50:36;15.30;99.90
45685;DHT22;46836;48.388;16.210;2023-03-09T10:55:52;15.30;99.90
45685;DHT22;46836;48.388;16.210;2023-03-09T10:58:31;15.30;99.90
45685;DHT22;46836;48.388;16.210;2023-03-09T11:01:20;15.30;99.90
45685;DHT22;46836;48.388;16.210;2023-03-09T11:03:47;15.30;99.90
45685;DHT22;46836;48.388;16.210;2023-03-09T11:06:36;15.20;99.90
45685;DHT22;46836;48.388;16.210;2023-03-09T11:09:17;15.30;99.90
45685;DHT22;46836;48.388;16.210;2023-03-09T11:11:46;15.60;99.90
45685;DHT22;46836;48.388;16.210;2023-03-09T11:14:33;15.90;99.90
45685;DHT22;46836;48.388;16.210;2023-03-09T11:17:27;16.10;99.90
45685;DHT22;46836;48.388;16.210;2023-03-09T11:28:23;16.80;99.90
45685;DHT22;46836;48.388;16.210;2023-03-09T11:30:53;16.80;99.90
45685;DHT22;46836;48.388;16.210;2023-03-09T11:33:24;16.80;99.90
45685;DHT22;46836;48.388;16.210;2023-03-09T11:35:53;16.90;99.90
45685;DHT22;46836;48.388;16.210;2023-03-09T11:38:22;16.90;99.90
45685;DHT22;46836;48.388;16.210;2023-03-09T11:41:05;16.90;99.90
45685;DHT22;46836;48.388;16.210;2023-03-09T11:43:41;17.10;99.90
45685;DHT22;46836;48.388;16.210;2023-03-09T11:46:12;17.00;99.90
45685;DHT22;46836;48.388;16.210;2023-03-09T11:48:47;17.00;99.90
45685;DHT22;46836;48.388;16.210;2023-03-09T11:51:25;17.00;99.90
45685;DHT22;46836;48.388;16.210;2023-03-09T11:56:33;17.20;99.90
45685;DHT22;46836;48.388;16.210;2023-03-09T12:01:38;17.20;99.90
45685;DHT22;46836;48.388;16.210;2023-03-09T12:04:09;17.20;99.90
45685;DHT22;46836;48.388;16.210;2023-03-09T12:07:00;17.30;99.90
45685;DHT22;46836;48.388;16.210;2023-03-09T12:12:23;17.20;99.90
45685;DHT22;46836;48.388;16.210;2023-03-09T12:17:38;17.50;99.90
45685;DHT22;46836;48.388;16.210;2023-03-09T12:20:24;17.40;99.90
45685;DHT22;46836;48.388;16.210;2023-03-09T12:22:52;17.50;99.90
45685;DHT22;46836;48.388;16.210;2023-03-09T12:25:21;17.60;99.90
45685;DHT22;46836;48.388;16.210;2023-03-09T12:27:58;17.70;99.90
45685;DHT22;46836;48.388;16.210;2023-03-09T12:30:41;17.60;99.90
45685;DHT22;46836;48.388;16.210;2023-03-09T12:33:09;17.50;99.90
45685;DHT22;46836;48.388;16.210;2023-03-09T12:38:23;17.70;99.90
45685;DHT22;46836;48.388;16.210;2023-03-09T12:40:50;17.70;99.90
45685;DHT22;46836;48.388;16.210;2023-03-09T12:45:49;17.90;99.90
45685;DHT22;46836;48.388;16.210;2023-03-09T12:48:28;17.60;99.90
45685;DHT22;46836;48.388;16.210;2023-03-09T12:51:14;17.30;99.90
45685;DHT22;46836;48.388;16.210;2023-03-09T12:54:02;17.20;99.90
45685;DHT22;46836;48.388;16.210;2023-03-09T12:56:32;17.20;99.90
45685;DHT22;46836;48.388;16.210;2023-03-09T12:59:07;17.10;99.90
45685;DHT22;46836;48.388;16.210;2023-03-09T13:01:35;16.90;99.90
45685;DHT22;46836;48.388;16.210;2023-03-09T13:04:13;16.90;99.90
45685;DHT22;46836;48.388;16.210;2023-03-09T13:06:56;17.10;99.90
45685;DHT22;46836;48.388;16.210;2023-03-09T13:09:39;17.30;99.90
45685;DHT22;46836;48.388;16.210;2023-03-09T13:20:35;17.90;99.90
45685;DHT22;46836;48.388;16.210;2023-03-09T13:23:14;17.70;99.90
45685;DHT22;46836;48.388;16.210;2023-03-09T13:25:53;17.30;99.90
45685;DHT22;46836;48.388;16.210;2023-03-09T13:28:29;17.10;99.90
45685;DHT22;46836;48.388;16.210;2023-03-09T13:31:02;17.30;99.90
45685;DHT22;46836;48.388;16.210;2023-03-09T13:33:34;17.50;99.90
45685;DHT22;46836;48.388;16.210;2023-03-09T13:36:16;17.70;99.90
45685;DHT22;46836;48.388;16.210;2023-03-09T13:39:00;17.50;99.90
45685;DHT22;46836;48.388;16.210;2023-03-09T13:41:30;17.40;99.90
45685;DHT22;46836;48.388;16.210;2023-03-09T13:43:59;17.40;99.90
45685;DHT22;46836;48.388;16.210;2023-03-09T13:46:32;17.40;99.90
45685;DHT22;46836;48.388;16.210;2023-03-09T13:49:27;17.50;99.90
45685;DHT22;46836;48.388;16.210;2023-03-09T13:52:06;17.40;99.90
45685;DHT22;46836;48.388;16.210;2023-03-09T13:54:47;17.30;99.90
45685;DHT22;46836;48.388;16.210;2023-03-09T13:57:18;17.40;99.90
45685;DHT22;46836;48.388;16.210;2023-03-09T14:02:18;17.30;99.90
45685;DHT22;46836;48.388;16.210;2023-03-09T14:04:51;17.20;99.90
45685;DHT22;46836;48.388;16.210;2023-03-09T14:07:58;17.20;99.90
45685;DHT22;46836;48.388;16.210;2023-03-09T14:10:29;16.90;99.90
45685;DHT22;46836;48.388;16.210;2023-03-09T14:13:03;16.90;99.90
45685;DHT22;46836;48.388;16.210;2023-03-09T14:15:31;16.80;99.90
45685;DHT22;46836;48.388;16.210;2023-03-09T14:18:00;16.80;99.90
45685;DHT22;46836;48.388;16.210;2023-03-09T14:20:37;16.80;99.90
45685;DHT22;46836;48.388;16.210;2023-03-09T14:23:40;16.70;99.90
45685;DHT22;46836;48.388;16.210;2023-03-09T14:26:09;16.60;99.90
45685;DHT22;46836;48.388;16.210;2023-03-09T14:28:41;16.60;99.90
45685;DHT22;46836;48.388;16.210;2023-03-09T14:31:17;16.60;99.90
45685;DHT22;46836;48.388;16.210;2023-03-09T14:36:38;16.60;99.90
45685;DHT22;46836;48.388;16.210;2023-03-09T14:39:41;16.60;99.90
45685;DHT22;46836;48.388;16.210;2023-03-09T14:47:30;16.80;99.90
45685;DHT22;46836;48.388;16.210;2023-03-09T14:49:57;16.80;99.90
45685;DHT22;46836;48.388;16.210;2023-03-09T14:52:28;17.00;99.90
45685;DHT22;46836;48.388;16.210;2023-03-09T14:54:55;17.20;99.90
45685;DHT22;46836;48.388;16.210;2023-03-09T14:57:24;17.40;99.90
45685;DHT22;46836;48.388;16.210;2023-03-09T14:59:51;17.60;99.90
45685;DHT22;46836;48.388;16.210;2023-03-09T15:02:19;17.80;99.90
45685;DHT22;46836;48.388;16.210;2023-03-09T15:04:47;17.90;99.90
45685;DHT22;46836;48.388;16.210;2023-03-09T15:07:16;17.70;99.90
45685;DHT22;46836;48.388;16.210;2023-03-09T15:09:43;17.70;99.90
45685;DHT22;46836;48.388;16.210;2023-03-09T15:12:17;17.30;99.90
45685;DHT22;46836;48.388;16.210;2023-03-09T15:14:47;17.10;99.90
45685;DHT22;46836;48.388;16.210;2023-03-09T15:17:17;16.90;99.90
45685;DHT22;46836;48.388;16.210;2023-03-09T15:19:45;16.70;99.90
45685;DHT22;46836;48.388;16.210;2023-03-09T15:22:14;16.60;99.90
45685;DHT22;46836;48.388;16.210;2023-03-09T15:24:42;16.50;99.90
45685;DHT22;46836;48.388;16.210;2023-03-09T15:27:10;16.40;99.90
45685;DHT22;46836;48.388;16.210;2023-03-09T15:29:37;16.30;99.90
45685;DHT22;46836;48.388;16.210;2023-03-09T15:32:05;16.20;99.90
45685;DHT22;46836;48.388;16.210;2023-03-09T15:34:39;16.20;99.90
45685;DHT22;46836;48.388;16.210;2023-03-09T15:37:06;16.10;99.90
45685;DHT22;46836;48.388;16.210;2023-03-09T15:39:33;16.10;99.90
45685;DHT22;46836;48.388;16.210;2023-03-09T15:42:00;16.10;99.90
45685;DHT22;46836;48.388;16.210;2023-03-09T15:44:28;16.10;99.90
45685;DHT22;46836;48.388;16.210;2023-03-09T15:46:58;16.10;99.90
45685;DHT22;46836;48.388;16.210;2023-03-09T15:49:26;16.00;99.90
45685;DHT22;46836;48.388;16.210;2023-03-09T15:51:53;16.00;99.90
45685;DHT22;46836;48.388;16.210;2023-03-09T15:54:20;15.90;99.90
45685;DHT22;46836;48.388;16.210;2023-03-09T15:56:47;15.90;99.90
45685;DHT22;46836;48.388;16.210;2023-03-09T15:59:14;15.80;99.90
45685;DHT22;46836;48.388;16.210;2023-03-09T16:01:42;15.80;99.90
45685;DHT22;46836;48.388;16.210;2023-03-09T16:04:11;15.80;99.90
45685;DHT22;46836;48.388;16.210;2023-03-09T16:06:41;15.70;99.90
45685;DHT22;46836;48.388;16.210;2023-03-09T16:09:08;15.70;99.90
45685;DHT22;46836;48.388;16.210;2023-03-09T16:11:35;15.70;99.90
45685;DHT22;46836;48.388;16.210;2023-03-09T16:14:04;15.60;99.90
45685;DHT22;46836;48.388;16.210;2023-03-09T16:16:32;15.60;99.90
45685;DHT22;46836;48.388;16.210;2023-03-09T16:18:59;15.40;99.90
45685;DHT22;46836;48.388;16.210;2023-03-09T16:21:26;15.20;99.90
45685;DHT22;46836;48.388;16.210;2023-03-09T16:23:53;15.00;99.90
45685;DHT22;46836;48.388;16.210;2023-03-09T16:26:21;14.90;99.90
45685;DHT22;46836;48.388;16.210;2023-03-09T16:28:49;14.80;99.90
45685;DHT22;46836;48.388;16.210;2023-03-09T16:31:18;14.70;99.90
45685;DHT22;46836;48.388;16.210;2023-03-09T16:33:46;14.70;99.90
45685;DHT22;46836;48.388;16.210;2023-03-09T16:36:13;14.60;99.90
45685;DHT22;46836;48.388;16.210;2023-03-09T16:38:41;14.60;99.90
45685;DHT22;46836;48.388;16.210;2023-03-09T16:41:10;14.60;99.90
45685;DHT22;46836;48.388;16.210;2023-03-09T16:43:38;14.50;99.90
45685;DHT22;46836;48.388;16.210;2023-03-09T16:46:05;14.40;99.90
45685;DHT22;46836;48.388;16.210;2023-03-09T16:48:33;14.30;99.90
45685;DHT22;46836;48.388;16.210;2023-03-09T16:51:01;14.20;99.90
45685;DHT22;46836;48.388;16.210;2023-03-09T16:53:30;14.10;99.90
45685;DHT22;46836;48.388;16.210;2023-03-09T16:56:00;14.10;99.90
45685;DHT22;46836;48.388;16.210;2023-03-09T16:58:29;14.00;99.90
45685;DHT22;46836;48.388;16.210;2023-03-09T17:00:57;14.00;99.90